Rupert, Georgia
Current Conditions -  °F | °C
As of 1:55 PM on Sunday 23 Nov 2014 (Local Time) from KACJ Reporting Station
Haze Haze  
Wind Chill: 66°   Ceiling: 300
Heat Index: 66°   Visibility: 2.5mi
Dew Point: 66°   Wind: 6mph
Humidity: 100%   Direction: 160°SSE
Pressure: 29.78"   Gusts: NA
Location:  32.45°N, 84.28°W
Report Text: KACJ 231855Z AUTO 16005KT 2 1/2SM BR OVC003 19/19 A2978 RMK AO2
Loading
Personal Weather Stations






























Interactive Weather Map New forecast layout! Learn more

10-Day Weather Forecast

Advertisements
Track Severe Weather on mobile